Time;durP1;ratioP1;P1;durP2;ratioP2;P2;SDS_P1;SDS_P2;PMS_P1;PMS_P2;Temp;Humidity;BMP_temperature;BMP_pressure;BME280_temperature;BME280_humidity;BME280_pressure;Samples;Min_cycle;Max_cycle;Signal;HPM_P1;HPM_P2
2022/01/05 00:01:58;;;;;;;14.25;9.68;;;12.40;96.70;;;;;;5079126;28;20523;-74
2022/01/05 00:04:29;;;;;;;13.75;8.48;;;12.40;96.70;;;;;;5081585;28;20237;-75
2022/01/05 00:06:58;;;;;;;11.57;8.80;;;12.50;96.70;;;;;;5044739;28;20120;-74
2022/01/05 00:09:26;;;;;;;10.18;7.93;;;12.50;96.70;;;;;;5080628;28;20060;-74
2022/01/05 00:11:55;;;;;;;11.10;8.80;;;12.50;96.70;;;;;;5076684;28;20039;-74
2022/01/05 00:14:28;;;;;;;13.30;9.57;;;12.50;96.70;;;;;;5078732;28;20044;-74
2022/01/05 00:16:56;;;;;;;10.93;8.55;;;12.50;96.70;;;;;;5079497;28;20036;-75
2022/01/05 00:19:25;;;;;;;13.02;8.60;;;12.50;96.70;;;;;;5079758;28;20416;-75
2022/01/05 00:21:53;;;;;;;10.60;7.70;;;12.50;96.70;;;;;;5078590;28;20043;-74
2022/01/05 00:24:22;;;;;;;9.18;6.75;;;12.60;96.70;;;;;;5080186;28;20386;-75
2022/01/05 00:26:51;;;;;;;11.18;7.25;;;12.60;96.70;;;;;;5081032;28;20345;-74
2022/01/05 00:29:19;;;;;;;8.57;5.90;;;12.70;96.70;;;;;;5063910;28;20040;-74
2022/01/05 00:31:49;;;;;;;8.00;5.57;;;12.70;96.70;;;;;;5076239;28;20129;-75
2022/01/05 00:34:18;;;;;;;9.07;5.95;;;12.70;96.70;;;;;;5083626;28;20045;-74
2022/01/05 00:36:52;;;;;;;8.52;5.90;;;12.80;96.70;;;;;;5064140;28;20043;-74
2022/01/05 00:39:20;;;;;;;9.23;4.95;;;12.80;96.70;;;;;;5078225;28;20059;-74
2022/01/05 00:41:51;;;;;;;7.63;4.68;;;12.80;96.70;;;;;;5079252;28;20071;-74
2022/01/05 00:44:22;;;;;;;6.78;4.63;;;12.80;96.70;;;;;;5080212;28;20090;-75
2022/01/05 00:46:52;;;;;;;7.53;5.25;;;12.80;96.70;;;;;;5075437;28;20048;-74
2022/01/05 00:49:21;;;;;;;6.78;5.25;;;12.90;96.70;;;;;;5060200;28;20044;-74
2022/01/05 00:51:49;;;;;;;8.25;5.30;;;12.90;96.70;;;;;;5079843;28;20079;-74
2022/01/05 00:54:20;;;;;;;6.90;4.88;;;12.80;96.70;;;;;;5079600;28;20153;-74
2022/01/05 00:56:48;;;;;;;10.85;5.72;;;12.80;96.70;;;;;;5079572;28;20461;-74
2022/01/05 00:59:17;;;;;;;8.40;6.03;;;12.80;96.70;;;;;;5078223;28;20476;-74
2022/01/05 01:01:45;;;;;;;8.45;6.13;;;12.80;96.70;;;;;;5082448;28;20129;-74
2022/01/05 01:04:15;;;;;;;8.60;6.15;;;12.80;96.70;;;;;;5080588;28;20040;-74
2022/01/05 01:06:44;;;;;;;10.18;6.07;;;12.80;96.70;;;;;;5060754;28;20143;-75
2022/01/05 01:09:13;;;;;;;9.27;6.47;;;12.80;96.70;;;;;;5079511;28;20125;-74
2022/01/05 01:11:44;;;;;;;10.65;6.10;;;12.80;96.70;;;;;;5080052;28;20063;-74
2022/01/05 01:14:12;;;;;;;8.02;5.82;;;12.80;96.70;;;;;;5081299;28;20036;-74
2022/01/05 01:16:40;;;;;;;8.77;5.85;;;12.80;96.70;;;;;;5074536;28;20455;-74
2022/01/05 01:19:11;;;;;;;7.60;5.80;;;12.80;96.70;;;;;;5080471;28;20051;-74
2022/01/05 01:21:41;;;;;;;7.13;5.20;;;12.80;96.70;;;;;;5079466;28;20130;-74
2022/01/05 01:24:10;;;;;;;9.30;5.55;;;12.80;96.70;;;;;;5064020;28;20074;-74
2022/01/05 01:26:38;;;;;;;7.43;5.18;;;12.80;96.70;;;;;;5075057;28;20121;-74
2022/01/05 01:29:07;;;;;;;8.98;5.25;;;12.80;96.70;;;;;;5076078;28;20051;-74
2022/01/05 01:31:35;;;;;;;9.20;5.22;;;12.80;96.70;;;;;;5075705;28;20040;-74
2022/01/05 01:34:04;;;;;;;7.40;5.00;;;12.90;96.70;;;;;;5061818;28;20114;-75
2022/01/05 01:36:32;;;;;;;5.70;4.03;;;12.90;96.70;;;;;;5077025;28;20574;-74
2022/01/05 01:39:04;;;;;;;5.78;4.07;;;12.90;96.70;;;;;;5077004;28;20370;-74
2022/01/05 01:41:33;;;;;;;7.32;4.70;;;12.90;96.70;;;;;;5077237;28;20047;-74
2022/01/05 01:44:01;;;;;;;6.97;4.28;;;12.90;96.70;;;;;;5081251;28;20032;-75
2022/01/05 01:46:30;;;;;;;8.50;4.03;;;12.90;96.70;;;;;;5079558;28;20048;-75
2022/01/05 01:48:59;;;;;;;8.07;5.57;;;12.90;96.70;;;;;;5079289;28;20119;-74
2022/01/05 01:51:31;;;;;;;7.68;4.80;;;12.90;96.70;;;;;;5061847;28;20052;-74
2022/01/05 01:54:06;;;;;;;6.68;4.47;;;12.90;96.70;;;;;;5075540;28;20046;-75
2022/01/05 01:56:35;;;;;;;5.28;3.72;;;13.00;96.70;;;;;;5062381;28;20048;-75
2022/01/05 01:59:04;;;;;;;4.90;3.40;;;12.90;96.70;;;;;;5075440;28;20457;-74
2022/01/05 02:01:32;;;;;;;4.43;3.60;;;12.90;96.70;;;;;;5075727;28;20058;-73
2022/01/05 02:04:03;;;;;;;6.40;3.55;;;12.90;96.70;;;;;;5078378;28;20051;-73
2022/01/05 02:06:33;;;;;;;4.68;2.30;;;12.90;96.70;;;;;;5088536;28;20434;-73
2022/01/05 02:09:03;;;;;;;6.30;3.47;;;12.90;96.70;;;;;;5078124;28;20066;-73
2022/01/05 02:11:37;;;;;;;5.88;2.97;;;12.90;96.70;;;;;;5077499;28;20460;-74
2022/01/05 02:14:06;;;;;;;5.57;2.45;;;12.90;96.70;;;;;;5073869;28;20067;-73
2022/01/05 02:16:39;;;;;;;5.82;2.40;;;12.90;96.70;;;;;;5077824;28;20405;-73
2022/01/05 02:19:08;;;;;;;5.57;1.90;;;12.80;96.70;;;;;;5075199;28;20044;-73
2022/01/05 02:21:39;;;;;;;5.43;2.42;;;12.80;96.70;;;;;;5059643;28;20145;-73
2022/01/05 02:24:11;;;;;;;4.88;2.08;;;12.80;96.70;;;;;;5074619;28;20513;-73
2022/01/05 02:26:42;;;;;;;3.13;2.00;;;12.80;96.70;;;;;;5075406;28;20106;-73
2022/01/05 02:29:10;;;;;;;5.63;1.67;;;12.80;96.70;;;;;;5076359;28;20044;-73
2022/01/05 02:31:39;;;;;;;3.38;1.90;;;12.80;96.70;;;;;;5075351;28;20636;-73
2022/01/05 02:34:07;;;;;;;3.70;1.58;;;12.90;96.70;;;;;;5095257;28;20550;-73
2022/01/05 02:36:38;;;;;;;5.07;1.67;;;13.00;96.70;;;;;;5076559;28;20044;-73
2022/01/05 02:39:07;;;;;;;3.83;1.45;;;13.00;96.70;;;;;;5079054;28;20090;-73
2022/01/05 02:41:35;;;;;;;5.72;1.63;;;13.10;96.70;;;;;;5074064;28;20052;-73
2022/01/05 02:44:04;;;;;;;4.95;1.63;;;13.10;96.70;;;;;;5080034;28;20430;-73
2022/01/05 02:46:34;;;;;;;4.20;1.67;;;13.20;96.70;;;;;;5075239;28;20046;-73
2022/01/05 02:49:04;;;;;;;2.55;1.58;;;13.20;96.70;;;;;;5077727;28;20050;-73
2022/01/05 02:51:35;;;;;;;4.22;1.85;;;13.20;96.70;;;;;;5078858;28;20047;-73
2022/01/05 02:54:05;;;;;;;3.95;1.45;;;13.20;96.70;;;;;;5076033;28;20462;-73
2022/01/05 02:56:34;;;;;;;4.03;1.70;;;13.20;96.70;;;;;;5073553;28;20465;-73
2022/01/05 02:59:04;;;;;;;4.30;1.50;;;13.20;96.70;;;;;;5075244;28;20040;-74
2022/01/05 03:01:33;;;;;;;6.82;2.00;;;13.30;96.70;;;;;;5078706;28;20040;-73
2022/01/05 03:04:05;;;;;;;3.25;1.58;;;13.30;96.70;;;;;;5077487;28;20126;-73
2022/01/05 03:06:33;;;;;;;4.25;1.77;;;13.30;96.70;;;;;;5072617;28;20533;-73
2022/01/05 03:09:02;;;;;;;3.50;1.40;;;13.20;96.70;;;;;;5078877;28;20040;-73
2022/01/05 03:11:32;;;;;;;5.93;1.27;;;13.30;96.70;;;;;;5077403;28;20055;-73
2022/01/05 03:14:09;;;;;;;4.03;1.55;;;13.30;96.70;;;;;;5070044;28;20509;-73
2022/01/05 03:16:37;;;;;;;7.05;1.70;;;13.20;96.70;;;;;;5069466;28;20518;-73
2022/01/05 03:19:07;;;;;;;5.32;1.60;;;13.20;96.70;;;;;;5071059;28;20064;-73
2022/01/05 03:21:35;;;;;;;3.70;1.55;;;13.20;96.70;;;;;;5074209;28;20425;-73
2022/01/05 03:24:04;;;;;;;4.60;2.30;;;13.20;96.70;;;;;;5071287;28;20055;-73
2022/01/05 03:26:34;;;;;;;6.57;1.77;;;13.20;96.70;;;;;;5076852;28;20040;-73
2022/01/05 03:29:02;;;;;;;3.58;1.50;;;13.20;96.70;;;;;;5074209;28;20823;-72
2022/01/05 03:31:30;;;;;;;5.13;1.60;;;13.20;96.70;;;;;;5074842;28;20041;-74
2022/01/05 03:33:58;;;;;;;6.43;2.15;;;13.20;96.70;;;;;;5073477;28;20048;-73
2022/01/05 03:36:26;;;;;;;5.57;2.50;;;13.20;96.70;;;;;;5069984;28;20094;-74
2022/01/05 03:38:54;;;;;;;6.20;2.30;;;13.20;96.70;;;;;;5072550;28;20121;-73
2022/01/05 03:41:22;;;;;;;4.25;1.95;;;13.20;96.70;;;;;;5071941;28;20096;-73
2022/01/05 03:43:52;;;;;;;6.00;2.05;;;13.20;96.70;;;;;;5078003;28;20071;-73
2022/01/05 03:46:20;;;;;;;6.50;2.25;;;13.20;96.70;;;;;;5077324;28;20046;-73
2022/01/05 03:48:48;;;;;;;5.55;2.00;;;13.20;96.70;;;;;;5078887;28;20044;-73
2022/01/05 03:51:18;;;;;;;7.60;2.35;;;13.20;96.70;;;;;;5081569;28;20039;-72
2022/01/05 03:53:47;;;;;;;4.25;2.00;;;13.20;96.70;;;;;;5064535;28;20048;-72
2022/01/05 03:56:15;;;;;;;8.77;4.28;;;13.20;96.70;;;;;;5073982;28;20093;-70
2022/01/05 03:58:44;;;;;;;5.47;2.83;;;13.20;96.70;;;;;;5070715;28;20044;-70
2022/01/05 04:01:13;;;;;;;6.28;3.25;;;13.20;96.70;;;;;;5073200;28;20677;-70
2022/01/05 04:03:41;;;;;;;5.00;2.70;;;13.20;96.70;;;;;;5076568;28;20040;-70
2022/01/05 04:06:10;;;;;;;5.50;2.78;;;13.20;96.70;;;;;;5073130;28;20032;-70
2022/01/05 04:08:38;;;;;;;6.97;2.85;;;13.20;96.70;;;;;;5076362;28;20032;-70
2022/01/05 04:11:06;;;;;;;3.65;1.95;;;13.20;96.70;;;;;;5074180;28;20532;-71
2022/01/05 04:13:34;;;;;;;4.60;2.50;;;13.20;96.70;;;;;;5081967;28;20075;-70
2022/01/05 04:16:02;;;;;;;5.15;2.10;;;13.20;96.70;;;;;;5079181;28;20044;-71
2022/01/05 04:18:32;;;;;;;3.70;1.88;;;13.10;96.70;;;;;;5077187;28;20558;-71
2022/01/05 04:21:01;;;;;;;2.90;1.67;;;13.10;96.70;;;;;;5074900;28;20131;-72
2022/01/05 04:23:30;;;;;;;5.15;2.30;;;13.10;96.70;;;;;;5073314;28;20143;-71
2022/01/05 04:26:00;;;;;;;4.88;2.00;;;13.10;96.70;;;;;;5058462;28;20666;-71
2022/01/05 04:28:30;;;;;;;5.40;2.00;;;13.10;96.70;;;;;;5077278;28;20378;-71
2022/01/05 04:30:59;;;;;;;4.63;2.47;;;13.10;96.70;;;;;;5064056;28;20083;-71
2022/01/05 04:33:27;;;;;;;4.28;2.08;;;13.10;96.70;;;;;;5079519;28;20040;-71
2022/01/05 04:36:16;;;;;;;3.63;2.40;;;13.10;96.70;;;;;;5077057;28;20133;-72
2022/01/05 04:38:44;;;;;;;3.75;2.15;;;13.10;96.70;;;;;;5076052;28;20040;-72
2022/01/05 04:41:12;;;;;;;4.70;2.10;;;13.10;96.70;;;;;;5079468;28;20109;-72
2022/01/05 04:43:40;;;;;;;3.17;1.85;;;13.10;96.70;;;;;;5076445;28;20044;-72
2022/01/05 04:46:08;;;;;;;3.72;1.90;;;13.10;96.70;;;;;;5077593;28;20039;-72
2022/01/05 04:48:36;;;;;;;5.20;2.33;;;13.10;96.70;;;;;;5075336;28;20043;-71
2022/01/05 04:51:04;;;;;;;2.92;1.80;;;13.10;96.70;;;;;;5093814;28;20043;-72
2022/01/05 04:53:34;;;;;;;4.55;2.20;;;13.10;96.70;;;;;;5078603;28;20043;-71
2022/01/05 04:56:02;;;;;;;4.07;1.90;;;13.10;96.70;;;;;;5076910;28;20036;-71
2022/01/05 04:58:31;;;;;;;5.30;2.05;;;13.10;96.70;;;;;;5077901;28;20044;-72
2022/01/05 05:00:59;;;;;;;3.80;1.75;;;13.10;96.70;;;;;;5083526;28;20040;-72
2022/01/05 05:03:27;;;;;;;4.18;1.77;;;13.00;96.70;;;;;;5078359;28;20062;-72
2022/01/05 05:05:55;;;;;;;4.57;1.60;;;13.10;96.70;;;;;;5066299;28;20497;-72
2022/01/05 05:08:23;;;;;;;5.25;1.90;;;13.00;96.70;;;;;;5061836;28;20040;-71
2022/01/05 05:10:52;;;;;;;3.55;2.17;;;13.00;96.70;;;;;;5062628;28;20054;-72
2022/01/05 05:13:20;;;;;;;5.20;2.10;;;13.00;96.70;;;;;;5075867;28;20085;-72
2022/01/05 05:15:48;;;;;;;5.43;2.30;;;13.00;96.70;;;;;;5079568;28;20071;-72
2022/01/05 05:18:16;;;;;;;3.53;1.98;;;13.00;96.70;;;;;;5075749;28;20102;-71
2022/01/05 05:20:44;;;;;;;5.00;2.38;;;13.00;96.70;;;;;;5076658;28;21374;-71
2022/01/05 05:23:12;;;;;;;5.72;1.70;;;13.00;96.70;;;;;;5077488;28;20814;-71
2022/01/05 05:25:40;;;;;;;7.75;2.08;;;13.00;96.70;;;;;;5078257;28;20469;-72
2022/01/05 05:28:09;;;;;;;6.93;2.17;;;13.00;96.70;;;;;;5076048;28;20043;-72
2022/01/05 05:30:37;;;;;;;4.32;2.00;;;13.00;96.70;;;;;;5077714;28;20645;-72
2022/01/05 05:33:05;;;;;;;4.72;1.80;;;13.00;96.70;;;;;;5064080;28;20051;-72
2022/01/05 05:35:33;;;;;;;5.93;2.03;;;13.00;96.70;;;;;;5076339;28;20032;-72
2022/01/05 05:38:01;;;;;;;7.30;2.70;;;13.00;96.70;;;;;;5076777;28;20133;-73
2022/01/05 05:40:29;;;;;;;3.47;1.35;;;13.10;96.70;;;;;;5077654;28;20153;-73
2022/01/05 05:42:57;;;;;;;4.82;1.75;;;13.10;96.70;;;;;;5080108;28;20059;-73
2022/01/05 05:45:27;;;;;;;3.72;1.52;;;13.10;96.70;;;;;;5074357;28;20133;-73
2022/01/05 05:47:55;;;;;;;4.47;2.20;;;13.10;96.70;;;;;;5075488;28;20591;-73
2022/01/05 05:50:23;;;;;;;3.90;1.92;;;13.10;96.70;;;;;;5059599;28;20324;-73
2022/01/05 05:52:51;;;;;;;3.67;1.60;;;13.10;96.70;;;;;;5075253;28;20446;-73
2022/01/05 05:55:19;;;;;;;6.95;1.83;;;13.10;96.70;;;;;;5079611;28;20552;-74
2022/01/05 05:57:47;;;;;;;4.35;2.28;;;13.10;96.70;;;;;;5078504;28;20044;-73
2022/01/05 06:00:15;;;;;;;4.60;1.67;;;13.10;96.70;;;;;;5077643;28;20044;-73
2022/01/05 06:02:45;;;;;;;4.93;2.05;;;13.10;96.70;;;;;;5075814;28;20050;-73
2022/01/05 06:05:13;;;;;;;5.30;2.03;;;13.20;96.70;;;;;;5078034;28;20037;-73
2022/01/05 06:07:41;;;;;;;3.90;2.00;;;13.20;96.70;;;;;;5076165;28;20584;-73
2022/01/05 06:10:10;;;;;;;4.78;1.73;;;13.20;96.70;;;;;;5075266;28;20538;-73
2022/01/05 06:12:38;;;;;;;4.80;1.80;;;13.20;96.70;;;;;;5073671;28;20551;-73
2022/01/05 06:15:07;;;;;;;5.13;2.08;;;13.20;96.70;;;;;;5076946;28;20383;-73
2022/01/05 06:17:35;;;;;;;5.60;2.13;;;13.20;96.70;;;;;;5076494;28;20413;-73
2022/01/05 06:20:07;;;;;;;3.63;2.08;;;13.20;96.70;;;;;;5074066;28;20405;-73
2022/01/05 06:22:38;;;;;;;5.13;2.30;;;13.20;96.70;;;;;;5071662;28;20131;-73
2022/01/05 06:25:08;;;;;;;4.38;2.45;;;13.20;96.70;;;;;;5077427;28;20400;-73
2022/01/05 06:27:36;;;;;;;7.32;1.80;;;13.20;96.70;;;;;;5063464;28;20515;-73
2022/01/05 06:30:07;;;;;;;4.40;1.83;;;13.20;96.70;;;;;;5076146;28;20052;-73
2022/01/05 06:32:41;;;;;;;4.53;1.83;;;13.30;96.70;;;;;;5074422;28;20052;-73
2022/01/05 06:35:11;;;;;;;5.00;1.60;;;13.30;96.70;;;;;;5076181;28;20446;-73
2022/01/05 06:37:39;;;;;;;3.10;1.73;;;13.30;96.70;;;;;;5074579;28;20074;-73
2022/01/05 06:40:08;;;;;;;4.95;2.15;;;13.30;96.70;;;;;;5077703;28;20067;-73
2022/01/05 06:42:36;;;;;;;2.90;1.67;;;13.40;96.70;;;;;;5077304;28;20070;-73
2022/01/05 06:45:06;;;;;;;4.63;1.75;;;13.40;96.70;;;;;;5074748;28;20079;-74
2022/01/05 06:47:34;;;;;;;4.40;1.73;;;13.40;96.70;;;;;;5077384;28;20044;-73
2022/01/05 06:50:02;;;;;;;6.35;1.80;;;13.40;96.70;;;;;;5080895;28;20048;-73
2022/01/05 06:52:31;;;;;;;5.53;2.33;;;13.40;96.70;;;;;;5077153;28;20477;-73
2022/01/05 06:54:59;;;;;;;8.40;2.25;;;13.40;96.70;;;;;;5071602;28;20071;-74
2022/01/05 06:57:27;;;;;;;4.22;2.00;;;13.40;96.70;;;;;;5077828;28;20669;-73
2022/01/05 06:59:55;;;;;;;3.45;1.98;;;13.40;96.70;;;;;;5074808;28;20040;-73
2022/01/05 07:02:23;;;;;;;5.50;2.25;;;13.50;96.70;;;;;;5078019;28;20121;-73
2022/01/05 07:04:51;;;;;;;5.35;2.38;;;13.50;96.70;;;;;;5077542;28;20037;-74
2022/01/05 07:07:19;;;;;;;5.78;2.05;;;13.50;96.70;;;;;;5070778;28;20097;-74
2022/01/05 07:09:49;;;;;;;3.63;1.83;;;13.50;96.70;;;;;;5077496;28;20597;-73
2022/01/05 07:12:17;;;;;;;5.53;2.42;;;13.50;96.70;;;;;;5077622;28;20032;-73
2022/01/05 07:14:45;;;;;;;7.88;2.50;;;13.50;96.70;;;;;;5061181;28;20047;-73
2022/01/05 07:17:13;;;;;;;6.28;2.42;;;13.50;96.70;;;;;;5076869;28;20039;-73
2022/01/05 07:19:45;;;;;;;4.93;2.28;;;13.50;96.70;;;;;;5076016;28;20048;-73
2022/01/05 07:22:13;;;;;;;8.57;2.58;;;13.50;96.70;;;;;;5072583;28;20067;-72
2022/01/05 07:24:41;;;;;;;5.70;2.67;;;13.50;96.70;;;;;;5071854;28;20287;-72
2022/01/05 07:27:11;;;;;;;3.60;1.95;;;13.50;96.70;;;;;;5072199;28;20056;-73
2022/01/05 07:29:39;;;;;;;7.07;3.53;;;13.50;96.70;;;;;;5074571;28;20519;-73
2022/01/05 07:32:08;;;;;;;8.43;3.35;;;13.50;96.70;;;;;;5074658;28;20829;-73
2022/01/05 07:34:36;;;;;;;13.15;7.05;;;13.50;96.70;;;;;;5074909;28;20048;-73
2022/01/05 07:37:05;;;;;;;8.93;4.60;;;13.50;96.70;;;;;;5073048;28;20047;-73
2022/01/05 07:39:39;;;;;;;6.88;3.80;;;13.50;96.70;;;;;;5078074;28;20051;-73
2022/01/05 07:42:08;;;;;;;10.60;6.20;;;13.50;96.70;;;;;;5072133;28;20082;-73
2022/01/05 07:44:38;;;;;;;17.65;11.32;;;13.50;96.70;;;;;;5079208;28;20074;-73
2022/01/05 07:47:08;;;;;;;13.48;8.30;;;13.50;96.70;;;;;;5077242;28;20040;-73
2022/01/05 07:49:37;;;;;;;10.70;6.53;;;13.50;96.70;;;;;;5079121;28;20076;-73
2022/01/05 07:52:06;;;;;;;7.40;4.78;;;13.50;96.70;;;;;;5079146;28;20109;-73
2022/01/05 07:54:35;;;;;;;7.28;4.88;;;13.50;96.70;;;;;;5075925;28;20508;-73
2022/01/05 07:57:04;;;;;;;8.05;4.50;;;13.50;96.70;;;;;;5064030;28;20052;-73
2022/01/05 07:59:33;;;;;;;7.13;3.75;;;13.60;96.70;;;;;;5077448;28;20036;-73
2022/01/05 08:02:03;;;;;;;7.18;4.00;;;13.60;96.70;;;;;;5078476;28;20115;-74
2022/01/05 08:04:31;;;;;;;9.98;3.95;;;13.60;96.70;;;;;;5061978;28;20054;-72
2022/01/05 08:07:00;;;;;;;9.32;3.97;;;13.60;96.70;;;;;;5081300;28;20036;-72
2022/01/05 08:09:29;;;;;;;9.02;3.72;;;13.60;96.70;;;;;;5077127;28;20044;-72
2022/01/05 08:11:59;;;;;;;6.20;3.80;;;13.60;96.70;;;;;;5063364;28;20512;-72
2022/01/05 08:14:28;;;;;;;9.90;3.45;;;13.60;96.70;;;;;;5076135;28;20381;-71
2022/01/05 08:16:56;;;;;;;9.23;3.50;;;13.70;96.70;;;;;;5076985;28;20041;-72
2022/01/05 08:19:26;;;;;;;7.88;3.35;;;13.60;96.70;;;;;;5076110;28;20148;-72
2022/01/05 08:21:54;;;;;;;6.95;3.45;;;13.60;96.70;;;;;;5059983;28;20110;-73
2022/01/05 08:24:22;;;;;;;8.30;3.47;;;13.60;96.70;;;;;;5081302;28;20045;-72
2022/01/05 08:26:50;;;;;;;8.88;3.38;;;13.60;96.70;;;;;;5078623;28;20049;-73
2022/01/05 08:29:19;;;;;;;8.15;3.17;;;13.70;96.70;;;;;;5073477;28;20378;-75
2022/01/05 08:31:47;;;;;;;9.52;3.33;;;13.70;96.70;;;;;;5078594;28;20139;-75
2022/01/05 08:34:15;;;;;;;9.85;3.70;;;13.70;96.70;;;;;;5059560;28;20043;-75
2022/01/05 08:36:44;;;;;;;10.32;3.83;;;13.70;96.70;;;;;;5080910;28;20115;-75
2022/01/05 08:39:14;;;;;;;8.65;3.83;;;13.70;96.70;;;;;;5078906;28;20056;-75
2022/01/05 08:41:42;;;;;;;8.20;4.90;;;13.70;96.70;;;;;;5072291;28;20123;-72
2022/01/05 08:44:11;;;;;;;12.88;6.20;;;13.70;96.70;;;;;;5076554;28;20122;-72
2022/01/05 08:46:39;;;;;;;13.70;6.25;;;13.70;96.70;;;;;;5071560;28;20044;-72
2022/01/05 08:49:09;;;;;;;12.32;5.85;;;13.60;96.70;;;;;;5077895;28;20048;-73
2022/01/05 08:51:37;;;;;;;11.88;5.43;;;13.70;96.70;;;;;;5077634;28;20048;-72
2022/01/05 08:54:07;;;;;;;13.30;5.07;;;13.70;96.70;;;;;;5076253;28;20144;-72
2022/01/05 08:56:37;;;;;;;13.93;5.18;;;13.70;96.70;;;;;;5079386;28;20047;-72
2022/01/05 08:59:06;;;;;;;14.95;5.13;;;13.70;96.70;;;;;;5075834;28;20046;-73
2022/01/05 09:01:34;;;;;;;14.57;5.53;;;13.70;96.70;;;;;;5078418;28;20040;-73
2022/01/05 09:04:02;;;;;;;13.88;5.25;;;13.80;96.70;;;;;;5074326;28;20505;-73
2022/01/05 09:06:31;;;;;;;13.23;5.18;;;13.80;96.70;;;;;;5078399;28;20498;-73
2022/01/05 09:08:59;;;;;;;11.40;5.43;;;13.80;96.70;;;;;;5079567;28;20046;-73
2022/01/05 09:11:28;;;;;;;12.27;4.47;;;13.80;96.70;;;;;;5078086;28;20037;-74
2022/01/05 09:13:56;;;;;;;11.27;4.13;;;13.90;96.70;;;;;;5075802;28;20118;-73
2022/01/05 09:16:25;;;;;;;10.57;4.43;;;13.90;96.70;;;;;;5077393;28;20170;-72
2022/01/05 09:18:53;;;;;;;11.27;4.20;;;14.00;96.70;;;;;;5077591;28;20043;-73
2022/01/05 09:21:21;;;;;;;8.80;4.60;;;14.00;96.70;;;;;;5075160;28;20071;-74
2022/01/05 09:23:50;;;;;;;9.75;4.50;;;14.00;96.70;;;;;;5075629;28;20064;-73
2022/01/05 09:26:18;;;;;;;12.52;4.88;;;14.10;96.70;;;;;;5077009;28;20040;-74
2022/01/05 09:28:49;;;;;;;8.60;4.20;;;14.00;96.70;;;;;;5079221;28;20446;-74
2022/01/05 09:31:17;;;;;;;10.52;4.38;;;14.10;96.70;;;;;;5078407;28;20051;-74
2022/01/05 09:33:46;;;;;;;10.52;4.70;;;14.10;96.70;;;;;;5075516;28;20126;-74
2022/01/05 09:36:22;;;;;;;8.55;4.22;;;14.10;96.70;;;;;;5076646;28;20070;-74
2022/01/05 09:44:10;;;;;;;13.35;5.03;;;14.20;96.70;;;;;;5079251;28;20071;-74
2022/01/05 09:46:50;;;;;;;8.13;4.47;;;14.30;96.70;;;;;;5074753;28;20036;-75
2022/01/05 09:49:24;;;;;;;8.30;4.13;;;14.30;96.70;;;;;;5076752;28;20040;-74
2022/01/05 09:51:56;;;;;;;11.60;4.78;;;14.40;96.70;;;;;;5079633;28;20454;-74
2022/01/05 09:54:24;;;;;;;11.68;4.40;;;14.40;96.70;;;;;;5078616;28;20047;-74
2022/01/05 09:57:07;;;;;;;7.20;4.07;;;14.40;96.70;;;;;;5076279;28;20047;-74
2022/01/05 09:59:37;;;;;;;7.53;3.97;;;14.30;96.70;;;;;;5077123;28;20032;-74
2022/01/05 10:02:06;;;;;;;6.82;3.47;;;14.30;96.70;;;;;;5093196;28;20459;-74
2022/01/05 10:04:36;;;;;;;6.68;3.80;;;14.30;96.70;;;;;;5075182;28;20289;-74
2022/01/05 10:07:07;;;;;;;5.53;3.38;;;14.30;96.70;;;;;;5075521;28;20495;-74
2022/01/05 10:09:37;;;;;;;6.50;3.50;;;14.20;96.70;;;;;;5075122;28;20572;-75
2022/01/05 10:12:06;;;;;;;10.48;3.55;;;14.10;96.70;;;;;;5076221;28;20506;-74
2022/01/05 10:14:38;;;;;;;7.05;3.55;;;14.10;96.70;;;;;;5076653;28;20135;-74
2022/01/05 10:17:09;;;;;;;6.82;3.90;;;14.10;96.70;;;;;;5078072;28;20042;-73
2022/01/05 10:19:38;;;;;;;8.10;4.13;;;14.10;96.70;;;;;;5073015;28;20105;-73
2022/01/05 10:22:32;;;;;;;5.40;3.60;;;14.10;96.70;;;;;;5073432;28;20040;-73
2022/01/05 10:25:01;;;;;;;7.63;3.60;;;14.10;96.70;;;;;;5075542;28;20048;-74
2022/01/05 10:27:30;;;;;;;7.88;3.70;;;14.20;96.70;;;;;;5075778;28;20495;-73
2022/01/05 10:30:02;;;;;;;7.28;4.13;;;14.20;96.70;;;;;;5077445;28;20507;-74
2022/01/05 10:32:32;;;;;;;5.82;3.92;;;14.20;96.70;;;;;;5073834;28;20455;-73
2022/01/05 10:35:03;;;;;;;6.40;3.75;;;14.20;96.70;;;;;;5077275;28;20119;-73
2022/01/05 10:37:33;;;;;;;9.70;4.10;;;14.20;96.70;;;;;;5077766;28;20068;-74
2022/01/05 10:40:07;;;;;;;7.15;4.60;;;14.30;96.70;;;;;;5076086;28;20140;-74
2022/01/05 10:42:37;;;;;;;9.30;4.75;;;14.30;96.70;;;;;;5079243;28;20048;-73
2022/01/05 10:45:09;;;;;;;7.30;4.88;;;14.30;96.70;;;;;;5088164;28;20511;-73
2022/01/05 10:47:37;;;;;;;8.90;5.47;;;14.30;96.70;;;;;;5073459;28;20047;-74
2022/01/05 10:50:11;;;;;;;9.85;6.53;;;14.30;96.70;;;;;;5077270;28;20050;-73
2022/01/05 10:52:41;;;;;;;10.77;6.60;;;14.30;96.70;;;;;;5076213;28;20094;-74
2022/01/05 10:55:11;;;;;;;10.90;6.35;;;14.30;96.70;;;;;;5072309;28;20396;-74
2022/01/05 10:57:55;;;;;;;11.15;6.18;;;14.30;96.70;;;;;;5094457;27;20135;-74
2022/01/05 11:00:36;;;;;;;12.80;5.53;;;14.40;96.70;;;;;;5078055;28;20170;-74
2022/01/05 11:03:21;;;;;;;7.93;5.25;;;14.40;96.70;;;;;;5077920;28;20113;-74
2022/01/05 11:06:07;;;;;;;8.70;4.63;;;14.40;96.70;;;;;;5077507;28;20611;-74
2022/01/05 11:08:48;;;;;;;10.18;5.32;;;14.40;96.70;;;;;;5076584;28;20040;-75
2022/01/05 11:11:30;;;;;;;15.88;6.70;;;14.40;96.70;;;;;;5074453;28;20573;-74
2022/01/05 11:13:58;;;;;;;11.70;4.78;;;14.40;96.70;;;;;;5073837;28;20055;-74
2022/01/05 11:16:29;;;;;;;9.35;5.88;;;14.40;96.70;;;;;;5072621;28;20127;-74
2022/01/05 11:19:19;;;;;;;9.05;4.97;;;14.40;96.70;;;;;;5076096;28;20062;-74
2022/01/05 11:22:06;;;;;;;7.70;5.35;;;14.40;96.70;;;;;;5075648;28;20058;-74
2022/01/05 11:24:37;;;;;;;9.48;5.80;;;14.50;96.70;;;;;;5081553;28;20075;-74
2022/01/05 11:27:07;;;;;;;8.10;5.13;;;14.50;96.70;;;;;;5076877;28;20510;-73
2022/01/05 11:29:36;;;;;;;11.18;5.45;;;14.60;96.70;;;;;;5079111;28;20119;-73
2022/01/05 11:32:08;;;;;;;10.73;5.40;;;14.60;96.70;;;;;;5063363;28;20040;-73
2022/01/05 11:34:36;;;;;;;11.10;6.72;;;14.70;96.70;;;;;;5079694;28;20662;-73
2022/01/05 11:37:07;;;;;;;9.63;5.75;;;14.70;96.70;;;;;;5077767;28;20139;-73
2022/01/05 11:39:42;;;;;;;7.30;5.32;;;14.80;96.70;;;;;;5079052;28;20061;-73
2022/01/05 11:42:14;;;;;;;11.30;6.43;;;14.80;96.70;;;;;;5074953;28;20578;-73
2022/01/05 11:44:47;;;;;;;9.35;6.03;;;14.90;96.70;;;;;;5073515;28;20138;-73
2022/01/05 11:47:23;;;;;;;11.40;6.32;;;14.90;96.70;;;;;;5079870;28;20461;-73
2022/01/05 11:49:52;;;;;;;11.35;5.93;;;14.90;96.70;;;;;;5080408;28;20050;-73
2022/01/05 11:52:55;;;;;;;8.15;5.13;;;15.00;96.70;;;;;;5074844;28;20442;-73
2022/01/05 11:55:24;;;;;;;9.25;5.30;;;15.00;96.70;;;;;;5078090;28;20052;-73
2022/01/05 11:58:13;;;;;;;8.45;5.40;;;15.00;96.70;;;;;;5077934;28;20036;-73
2022/01/05 12:00:42;;;;;;;9.05;5.05;;;15.00;96.70;;;;;;5077228;28;20101;-73
2022/01/05 12:03:12;;;;;;;10.20;5.80;;;15.00;96.70;;;;;;5076279;28;20505;-73
2022/01/05 12:06:05;;;;;;;11.32;6.15;;;15.10;96.70;;;;;;5080134;28;20517;-73
2022/01/05 12:08:41;;;;;;;6.55;5.30;;;15.20;96.70;;;;;;5075562;28;20059;-73
2022/01/05 12:11:27;;;;;;;15.47;6.73;;;15.20;96.70;;;;;;5076566;28;20044;-73
2022/01/05 12:13:55;;;;;;;13.88;5.47;;;15.30;96.70;;;;;;5075823;28;20443;-73
2022/01/05 12:16:23;;;;;;;11.57;5.93;;;15.40;96.70;;;;;;5078767;28;20051;-73
2022/01/05 12:19:14;;;;;;;12.02;6.68;;;15.50;96.70;;;;;;5078212;28;20047;-73
2022/01/05 12:21:47;;;;;;;11.30;4.28;;;15.50;96.70;;;;;;5078528;28;20179;-73
2022/01/05 12:24:15;;;;;;;14.25;5.15;;;15.60;96.70;;;;;;5079240;28;20056;-73
2022/01/05 12:26:44;;;;;;;11.95;5.25;;;15.60;96.70;;;;;;5079418;28;20040;-73
2022/01/05 12:29:12;;;;;;;11.50;5.22;;;15.60;96.70;;;;;;5079261;28;20036;-73
2022/01/05 12:31:55;;;;;;;11.90;6.47;;;15.50;96.70;;;;;;5062816;28;20126;-73
2022/01/05 12:34:54;;;;;;;17.45;7.43;;;15.50;96.70;;;;;;5073211;28;20125;-73
2022/01/05 12:37:39;;;;;;;12.65;4.63;;;15.50;96.70;;;;;;5075936;28;20036;-73
2022/01/05 12:40:28;;;;;;;9.88;5.55;;;15.60;96.70;;;;;;5077679;28;20056;-73
2022/01/05 12:43:28;;;;;;;11.35;4.75;;;15.60;96.70;;;;;;5084095;28;20111;-73
2022/01/05 12:45:57;;;;;;;13.68;4.85;;;15.60;96.70;;;;;;5080788;28;20481;-73
2022/01/05 12:48:58;;;;;;;12.65;4.35;;;15.50;96.70;;;;;;5077025;28;20040;-73
2022/01/05 12:51:46;;;;;;;10.80;4.13;;;15.50;96.70;;;;;;5076463;28;20592;-73
2022/01/05 12:54:18;;;;;;;11.65;4.70;;;15.40;96.70;;;;;;5079376;28;20044;-73
2022/01/05 12:56:49;;;;;;;15.45;5.97;;;15.30;96.70;;;;;;5078784;28;20498;-73
2022/01/05 12:59:23;;;;;;;26.75;11.82;;;15.30;96.70;;;;;;5080536;28;20032;-73
2022/01/05 13:01:53;;;;;;;14.43;8.13;;;15.20;96.70;;;;;;5074671;28;20044;-73
2022/01/05 13:04:25;;;;;;;10.63;4.90;;;15.10;96.70;;;;;;5078565;28;20150;-73
2022/01/05 13:06:59;;;;;;;12.68;5.15;;;15.00;96.70;;;;;;5081049;28;20040;-72